CheckWX is a tool to help pilots better visualize weather data.  It is not intended as a substitute for an official pre-flight weather briefing.

10:41:39 UTC

HKEL METAR
Eldoret International Airport
Eldoret, Kenya
Current

42 mins ago

HKEL 261000Z 36005KT 9999 FEW024CB BKN025 26/11 Q1024
Observed
Mar-26 @ 10:00 UTC
Wind
  • 360° at 5 KTS
Visibility
10,000+ meters
Flight Rules
MVFR
Cloud Levels
  • Few at 2,400' AGL
  • Broken at 2,500' AGL
Temperature
26°C / 79°F
Dewpoint
11°C / 52°F
Humidity
39%
Altimeter
30.24" Hg
Pressure
1023.92 hPa
Previous

1 hour ago

HKEL 260930Z 36007KT 9999 FEW023CB BKN024 BKN280 26/10 Q1024
Observed
Mar-26 @ 09:30 UTC
Wind
  • 360° at 7 KTS
Visibility
10,000+ meters
Flight Rules
MVFR
Cloud Levels
  • Few at 2,300' AGL
  • Broken at 2,400' AGL
  • Broken at 28,000' AGL
Temperature
26°C / 79°F
Dewpoint
10°C / 50°F
Humidity
37%
Altimeter
30.24" Hg
Pressure
1023.92 hPa
Previous

2 hours ago

HKEL 260900Z 01006KT 9999 FEW023CB BKN024 BKN280 25/09 Q1025
Observed
Mar-26 @ 09:00 UTC
Wind
  • 010° at 6 KTS
Visibility
10,000+ meters
Flight Rules
MVFR
Cloud Levels
  • Few at 2,300' AGL
  • Broken at 2,400' AGL
  • Broken at 28,000' AGL
Temperature
25°C / 77°F
Dewpoint
C / 48°F
Humidity
36%
Altimeter
30.27" Hg
Pressure
1024.92 hPa